Time;durP1;ratioP1;P1;durP2;ratioP2;P2;SDS_P1;SDS_P2;PMS_P1;PMS_P2;Temp;Humidity;BMP_temperature;BMP_pressure;BME280_temperature;BME280_humidity;BME280_pressure;Samples;Min_cycle;Max_cycle;Signal;HPM_P1;HPM_P2
2021/12/01 00:01:42;;;;;;;16.13;7.55;;;;;;;4.17;100.00;97251.41;10487333;28;20054;-59
2021/12/01 00:06:45;;;;;;;16.35;8.45;;;;;;;4.18;100.00;97250.41;10487493;28;20049;-57
2021/12/01 00:11:50;;;;;;;17.70;9.23;;;;;;;4.18;100.00;97246.91;10483421;28;20135;-62
2021/12/01 00:16:53;;;;;;;15.73;8.40;;;;;;;4.16;100.00;97236.41;10488407;28;20049;-65
2021/12/01 00:21:56;;;;;;;15.18;7.68;;;;;;;4.17;100.00;97232.75;10487080;28;20125;-59
2021/12/01 00:27:01;;;;;;;15.43;8.15;;;;;;;4.15;100.00;97226.75;10484316;28;20123;-61
2021/12/01 00:32:04;;;;;;;10.02;6.57;;;;;;;4.15;100.00;97226.75;10490001;28;20043;-63
2021/12/01 00:37:07;;;;;;;9.90;6.43;;;;;;;4.14;100.00;97225.88;10492658;28;20048;-62
2021/12/01 00:42:12;;;;;;;9.80;6.60;;;;;;;4.13;100.00;97213.53;10493263;28;20041;-63
2021/12/01 00:47:16;;;;;;;10.52;6.78;;;;;;;4.10;100.00;97213.00;10340166;27;5002600;-62
2021/12/01 00:52:24;;;;;;;8.27;6.32;;;;;;;4.08;100.00;97199.84;10530938;28;20039;-62
2021/12/01 00:57:28;;;;;;;8.77;6.38;;;;;;;4.07;100.00;97182.19;10534321;28;20143;-61
2021/12/01 01:02:32;;;;;;;9.98;5.82;;;;;;;4.08;100.00;97175.00;10535025;28;20046;-62
2021/12/01 01:07:36;;;;;;;9.27;6.30;;;;;;;4.08;100.00;97164.34;10535716;28;20044;-61
2021/12/01 01:18:05;;;;;;;8.38;6.03;;;;;;;4.11;100.00;97140.91;10530778;28;20501;-59
2021/12/01 01:23:09;;;;;;;7.70;5.70;;;;;;;4.11;100.00;97140.06;10531260;28;20157;-61
2021/12/01 01:28:14;;;;;;;5.75;5.15;;;;;;;4.10;100.00;97138.38;10533738;28;20389;-62
2021/12/01 01:33:17;;;;;;;5.28;4.47;;;;;;;4.09;100.00;97123.38;10534049;28;20044;-60
2021/12/01 01:38:21;;;;;;;3.20;2.90;;;;;;;4.09;100.00;97110.06;10533773;28;20091;-61
2021/12/01 01:43:26;;;;;;;2.30;2.10;;;;;;;4.11;100.00;97105.41;10531639;28;20119;-62
2021/12/01 01:48:31;;;;;;;1.48;1.38;;;;;;;4.12;100.00;97088.44;10532308;28;20076;-61
2021/12/01 01:53:35;;;;;;;1.45;1.35;;;;;;;4.14;100.00;97086.47;10536964;28;20510;-60
2021/12/01 01:58:39;;;;;;;1.65;1.13;;;;;;;4.16;100.00;97079.16;10533677;28;20119;-61
2021/12/01 02:03:45;;;;;;;1.52;0.80;;;;;;;4.20;100.00;97064.50;10519451;22;20072;-59
2021/12/01 02:08:48;;;;;;;0.60;0.60;;;;;;;4.27;100.00;97062.91;10427842;28;20427;-56
2021/12/01 02:13:52;;;;;;;0.70;0.70;;;;;;;4.27;100.00;97049.59;10427185;28;20055;-56
2021/12/01 02:18:55;;;;;;;0.70;0.70;;;;;;;4.31;100.00;97039.44;10445856;28;20053;-56
2021/12/01 02:24:02;;;;;;;0.40;0.40;;;;;;;4.35;100.00;97023.97;10446490;28;20043;-56
2021/12/01 02:29:09;;;;;;;0.40;0.40;;;;;;;4.37;100.00;97012.13;10444757;28;20412;-58
2021/12/01 02:34:14;;;;;;;0.50;0.50;;;;;;;4.38;100.00;97003.16;10442273;28;20116;-59
2021/12/01 02:39:19;;;;;;;0.30;0.30;;;;;;;4.42;100.00;96990.34;10446881;28;20127;-60
2021/12/01 02:44:23;;;;;;;0.30;0.30;;;;;;;4.43;100.00;96994.66;10443455;28;20071;-59
2021/12/01 02:49:26;;;;;;;0.30;0.30;;;;;;;4.46;100.00;96981.03;10428112;28;20131;-59
2021/12/01 02:54:32;;;;;;;0.30;0.30;;;;;;;4.49;100.00;96970.06;10444703;28;20075;-58
2021/12/01 02:59:35;;;;;;;0.20;0.20;;;;;;;4.51;100.00;96965.41;10445148;28;20068;-56
2021/12/01 03:04:41;;;;;;;0.30;0.30;;;;;;;4.56;100.00;96957.75;10439596;28;20073;-58
2021/12/01 03:09:45;;;;;;;0.20;0.20;;;;;;;4.56;100.00;96952.41;10446153;28;20124;-59
2021/12/01 03:14:49;;;;;;;1.85;0.30;;;;;;;4.57;100.00;96947.94;10445484;28;20459;-59
2021/12/01 03:19:52;;;;;;;1.90;0.32;;;;;;;4.54;100.00;96927.72;10441420;28;20080;-56
2021/12/01 03:24:57;;;;;;;0.95;0.40;;;;;;;4.54;100.00;96919.72;10445371;28;20044;-58
2021/12/01 03:29:59;;;;;;;0.40;0.30;;;;;;;4.47;100.00;96908.03;10444609;28;20553;-59
2021/12/01 03:35:05;;;;;;;0.40;0.40;;;;;;;4.50;100.00;96890.88;10443387;28;20049;-59
2021/12/01 03:40:11;;;;;;;0.40;0.40;;;;;;;4.51;100.00;96893.41;10439192;28;20644;-56
2021/12/01 03:45:15;;;;;;;0.80;0.30;;;;;;;4.48;100.00;96877.72;10444905;28;20044;-60
2021/12/01 03:50:19;;;;;;;1.00;0.50;;;;;;;4.53;100.00;96883.38;10444652;28;20049;-60
2021/12/01 03:55:23;;;;;;;0.50;0.40;;;;;;;4.56;100.00;96867.06;10424450;28;20049;-59
2021/12/01 04:00:26;;;;;;;0.20;0.20;;;;;;;4.56;100.00;96861.75;10428354;28;20063;-60
2021/12/01 04:05:32;;;;;;;0.30;0.28;;;;;;;4.54;100.00;96869.06;10443616;28;20053;-60
2021/12/01 04:10:38;;;;;;;3.40;0.50;;;;;;;4.54;100.00;96841.56;10443588;28;20037;-59
2021/12/01 04:15:42;;;;;;;0.30;0.30;;;;;;;4.53;100.00;96832.72;10448045;28;20106;-61
2021/12/01 04:20:45;;;;;;;1.92;0.43;;;;;;;4.49;100.00;96852.72;10450660;28;20472;-60
2021/12/01 04:25:50;;;;;;;0.57;0.40;;;;;;;4.48;100.00;96848.38;10451020;28;20045;-60
2021/12/01 04:30:54;;;;;;;0.30;0.30;;;;;;;4.46;100.00;96835.22;10437212;28;20053;-59
2021/12/01 04:35:57;;;;;;;0.40;0.40;;;;;;;4.44;100.00;96825.69;10409174;28;20039;-60
2021/12/01 04:41:02;;;;;;;0.57;0.57;;;;;;;4.44;100.00;96825.69;10405757;28;20037;-60
2021/12/01 04:46:06;;;;;;;0.68;0.47;;;;;;;4.41;100.00;96807.38;10390353;28;20049;-61
2021/12/01 04:51:10;;;;;;;0.60;0.40;;;;;;;4.39;100.00;96806.69;10406467;28;20108;-60
2021/12/01 04:56:17;;;;;;;0.60;0.45;;;;;;;4.38;100.00;96791.69;10409720;28;20068;-60
2021/12/01 05:01:20;;;;;;;0.55;0.50;;;;;;;4.41;100.00;96780.72;10408350;28;20124;-61
2021/12/01 05:06:24;;;;;;;0.40;0.40;;;;;;;4.46;100.00;96773.03;10409431;28;20128;-58
2021/12/01 05:11:28;;;;;;;2.58;0.43;;;;;;;4.49;100.00;96756.72;10408519;28;20133;-57
2021/12/01 05:16:45;;;;;;;0.55;0.55;;;;;;;4.47;100.00;96734.72;10406670;28;20037;-59
2021/12/01 05:21:49;;;;;;;0.57;0.57;;;;;;;4.46;100.00;96731.22;10405682;28;20091;-60
2021/12/01 05:26:54;;;;;;;0.63;0.60;;;;;;;4.43;100.00;96722.69;10406170;28;20049;-58
2021/12/01 05:31:59;;;;;;;0.88;0.60;;;;;;;4.40;100.00;96702.53;10389168;28;20782;-58
2021/12/01 05:37:03;;;;;;;0.50;0.50;;;;;;;4.39;100.00;96690.22;10407525;28;20041;-60
2021/12/01 05:42:08;;;;;;;0.50;0.50;;;;;;;4.40;100.00;96699.88;10406250;28;20581;-59
2021/12/01 05:47:12;;;;;;;0.50;0.50;;;;;;;4.42;100.00;96675.72;10403870;28;20060;-58
2021/12/01 05:52:17;;;;;;;1.15;0.70;;;;;;;4.43;100.00;96675.56;10406159;28;20136;-59
2021/12/01 05:57:22;;;;;;;2.40;0.50;;;;;;;4.41;100.00;96656.22;10404636;28;20045;-59
2021/12/01 06:02:25;;;;;;;0.52;0.47;;;;;;;4.43;100.00;96630.25;10384647;28;20049;-59
2021/12/01 06:07:28;;;;;;;0.73;0.55;;;;;;;4.43;100.00;96634.72;10407249;28;20050;-60
2021/12/01 06:12:58;;;;;;;2.15;1.08;;;;;;;4.42;100.00;96601.91;10406136;28;20037;-58
2021/12/01 06:18:02;;;;;;;1.27;0.50;;;;;;;4.44;100.00;96607.06;10404171;28;20095;-60
2021/12/01 06:23:05;;;;;;;0.60;0.60;;;;;;;4.46;100.00;96594.41;10405500;28;20048;-60
2021/12/01 06:28:10;;;;;;;0.50;0.50;;;;;;;4.46;100.00;96599.72;10384955;28;20052;-59
2021/12/01 06:33:13;;;;;;;1.17;0.80;;;;;;;4.44;100.00;96612.38;10402518;28;20048;-59
2021/12/01 06:38:18;;;;;;;0.70;0.70;;;;;;;4.49;100.00;96620.75;10403339;28;20584;-60
2021/12/01 06:43:22;;;;;;;0.60;0.60;;;;;;;4.53;100.00;96627.38;10403941;28;20051;-60
2021/12/01 06:48:26;;;;;;;1.95;0.90;;;;;;;4.58;100.00;96643.72;10404516;28;20434;-60
2021/12/01 06:53:30;;;;;;;1.10;1.00;;;;;;;4.58;100.00;96637.56;10401306;28;20536;-58
2021/12/01 06:58:35;;;;;;;0.73;0.73;;;;;;;4.56;100.00;96648.38;10402675;28;20124;-59
2021/12/01 07:03:38;;;;;;;2.28;1.00;;;;;;;4.60;100.00;96628.41;10396951;28;20058;-57
2021/12/01 07:08:41;;;;;;;0.90;0.90;;;;;;;4.71;100.00;96645.88;10398072;28;20527;-59
2021/12/01 07:13:46;;;;;;;1.23;1.13;;;;;;;4.72;100.00;96649.38;10381223;28;20042;-59
2021/12/01 07:18:49;;;;;;;1.00;1.00;;;;;;;4.72;100.00;96641.38;10385489;28;20046;-60
2021/12/01 07:23:52;;;;;;;1.20;1.10;;;;;;;4.72;100.00;96625.38;10399946;28;20034;-61
2021/12/01 07:29:00;;;;;;;1.60;1.27;;;;;;;4.79;100.00;96599.69;10404472;28;20068;-60
2021/12/01 07:34:03;;;;;;;1.25;1.05;;;;;;;4.82;100.00;96578.00;10400487;28;20065;-60
2021/12/01 07:39:06;;;;;;;0.90;0.90;;;;;;;4.79;100.00;96573.00;10402986;28;20049;-60
2021/12/01 07:44:11;;;;;;;1.27;1.10;;;;;;;4.80;100.00;96541.84;10385807;28;20408;-64
2021/12/01 07:49:14;;;;;;;1.63;1.30;;;;;;;4.83;100.00;96546.81;10410241;28;20050;-62
2021/12/01 07:54:17;;;;;;;1.35;1.10;;;;;;;4.80;100.00;96509.84;10407256;28;20081;-62
2021/12/01 07:59:22;;;;;;;1.50;1.20;;;;;;;4.79;100.00;96471.63;10411281;28;20045;-62
2021/12/01 08:04:25;;;;;;;2.55;1.30;;;;;;;4.82;100.00;96489.16;10409280;28;20045;-58
2021/12/01 08:09:29;;;;;;;1.52;1.00;;;;;;;4.81;100.00;96464.28;10410068;28;20080;-58
2021/12/01 08:14:33;;;;;;;0.90;0.90;;;;;;;4.82;100.00;96465.97;10407907;28;20537;-57
2021/12/01 08:19:36;;;;;;;1.92;1.15;;;;;;;4.83;100.00;96472.97;10406277;28;20057;-57
2021/12/01 08:24:39;;;;;;;1.27;1.00;;;;;;;4.87;100.00;96458.28;10407817;28;20505;-58
2021/12/01 08:29:43;;;;;;;1.45;0.95;;;;;;;4.92;100.00;96465.75;10408190;28;20071;-65
2021/12/01 08:34:49;;;;;;;1.40;0.90;;;;;;;4.92;100.00;96466.59;10409404;28;20049;-53
2021/12/01 08:39:54;;;;;;;3.08;0.90;;;;;;;4.96;100.00;96463.56;10410387;28;20061;-55
2021/12/01 08:44:58;;;;;;;0.80;0.80;;;;;;;4.99;100.00;96460.56;10409284;28;20401;-60
2021/12/01 08:50:04;;;;;;;1.30;0.90;;;;;;;5.02;100.00;96454.84;10410315;28;20468;-59
2021/12/01 08:55:08;;;;;;;1.05;0.90;;;;;;;5.02;100.00;96455.69;10404336;28;20123;-57
2021/12/01 09:00:16;;;;;;;1.00;0.90;;;;;;;5.08;100.00;96449.66;10407345;28;20045;-56
2021/12/01 09:05:19;;;;;;;1.13;0.70;;;;;;;5.12;100.00;96438.63;10408689;28;20702;-64
2021/12/01 09:10:22;;;;;;;1.05;0.70;;;;;;;5.20;100.00;96443.91;10408750;28;20567;-56
2021/12/01 09:15:26;;;;;;;1.63;0.90;;;;;;;5.26;100.00;96435.22;10405051;28;20040;-59
2021/12/01 09:20:30;;;;;;;1.20;0.80;;;;;;;5.29;100.00;96407.31;10408462;28;20045;-54
2021/12/01 09:25:34;;;;;;;0.82;0.77;;;;;;;5.33;100.00;96440.69;10406861;28;20092;-64
2021/12/01 09:30:49;;;;;;;0.70;0.70;;;;;;;5.41;100.00;96379.19;10403180;28;20068;-62
2021/12/01 09:35:53;;;;;;;1.65;0.85;;;;;;;5.44;100.00;96367.31;10390132;28;20046;-62
2021/12/01 09:40:58;;;;;;;1.40;0.88;;;;;;;5.50;100.00;96362.09;10407721;28;20122;-62
2021/12/01 09:46:08;;;;;;;1.25;0.90;;;;;;;5.57;100.00;96334.69;10408051;28;20398;-60
2021/12/01 09:51:13;;;;;;;1.98;1.00;;;;;;;5.59;100.00;96295.25;10386916;28;20186;-60
2021/12/01 09:56:16;;;;;;;0.82;0.70;;;;;;;5.59;100.00;96316.59;10389550;28;20520;-62
2021/12/01 10:01:23;;;;;;;1.02;0.70;;;;;;;5.62;100.00;96289.53;10405874;28;20586;-62
2021/12/01 10:06:28;;;;;;;1.95;0.77;;;;;;;5.70;100.00;96260.91;10401668;28;20058;-60
2021/12/01 10:11:34;;;;;;;1.48;0.73;;;;;;;5.73;100.00;96233.00;10389136;28;20053;-56
2021/12/01 10:16:41;;;;;;;1.05;0.73;;;;;;;5.78;100.00;96251.97;10388162;28;20055;-56
2021/12/01 10:21:47;;;;;;;0.70;0.68;;;;;;;5.84;100.00;96226.34;10405443;28;20081;-57
2021/12/01 10:26:53;;;;;;;1.00;0.70;;;;;;;5.80;100.00;96244.59;10372139;28;20076;-57
2021/12/01 10:31:59;;;;;;;2.63;0.80;;;;;;;5.78;100.00;96248.47;10403153;28;20045;-60
2021/12/01 10:37:14;;;;;;;0.70;0.70;;;;;;;5.76;100.00;96243.31;10401185;28;20503;-61
2021/12/01 11:06:45;;;;;;;0.95;0.80;;;;;;;5.90;100.00;96184.72;10625106;27;20549;-62
2021/12/01 11:11:52;;;;;;;1.38;0.68;;;;;;;5.99;100.00;96154.19;10610688;27;20516;-62
2021/12/01 11:17:03;;;;;;;0.77;0.73;;;;;;;6.12;100.00;96129.47;10617148;27;20039;-60
2021/12/01 11:22:31;;;;;;;1.90;0.70;;;;;;;6.13;100.00;96123.94;10633357;27;20035;-62
2021/12/01 11:27:34;;;;;;;0.70;0.70;;;;;;;6.16;100.00;96118.22;10613237;27;20512;-60
2021/12/01 11:32:37;;;;;;;0.57;0.57;;;;;;;6.17;100.00;96109.16;10632585;27;20390;-61
2021/12/01 11:37:42;;;;;;;0.95;0.70;;;;;;;6.24;100.00;96105.72;10631649;27;20416;-60
2021/12/01 11:42:46;;;;;;;1.38;0.60;;;;;;;6.25;100.00;96097.50;10626609;27;20044;-60
2021/12/01 11:47:50;;;;;;;1.02;0.65;;;;;;;6.29;100.00;96080.06;10615087;27;20050;-61
2021/12/01 11:53:08;;;;;;;0.70;0.60;;;;;;;6.36;100.00;96079.28;10612733;27;20032;-61
2021/12/01 11:58:11;;;;;;;1.30;0.70;;;;;;;6.41;100.00;96083.03;10616743;27;20042;-61
2021/12/01 12:03:28;;;;;;;0.50;0.50;;;;;;;6.47;100.00;96076.09;10639447;27;20051;-62
2021/12/01 12:08:58;;;;;;;0.98;0.52;;;;;;;6.52;100.00;96072.88;10615915;27;20501;-58
2021/12/01 12:14:03;;;;;;;1.27;0.90;;;;;;;6.67;100.00;96054.03;10586340;27;20054;-59
2021/12/01 12:19:06;;;;;;;0.70;0.60;;;;;;;6.75;100.00;96059.22;10592322;27;20044;-61
2021/12/01 12:24:16;;;;;;;1.00;0.50;;;;;;;6.84;100.00;96043.88;10616837;27;20043;-63
2021/12/01 12:29:22;;;;;;;0.50;0.40;;;;;;;6.94;100.00;96030.94;10589307;27;20045;-63
2021/12/01 12:34:25;;;;;;;1.17;0.50;;;;;;;7.06;100.00;96007.09;10605952;27;20039;-61
2021/12/01 12:39:32;;;;;;;2.15;0.60;;;;;;;7.18;100.00;96004.72;10617379;27;20043;-62
2021/12/01 12:44:38;;;;;;;0.90;0.60;;;;;;;7.14;100.00;95990.91;10594387;27;20423;-58
2021/12/01 12:50:11;;;;;;;1.17;0.50;;;;;;;7.21;100.00;95993.59;10583318;27;20518;-61
2021/12/01 12:55:39;;;;;;;0.40;0.40;;;;;;;7.15;100.00;95986.34;10584822;27;20463;-63
2021/12/01 13:00:48;;;;;;;0.57;0.30;;;;;;;7.11;100.00;95982.44;10597727;27;20508;-60
2021/12/01 13:05:53;;;;;;;2.88;0.50;;;;;;;7.16;100.00;95953.19;10611500;27;20059;-62
2021/12/01 13:11:03;;;;;;;2.05;0.50;;;;;;;7.11;100.00;95950.31;10593759;27;20047;-60
2021/12/01 13:16:08;;;;;;;0.60;0.40;;;;;;;7.04;100.00;95934.22;10596803;27;20396;-61
2021/12/01 13:21:14;;;;;;;1.77;0.50;;;;;;;6.96;100.00;95929.03;10590159;27;20059;-60
2021/12/01 13:26:22;;;;;;;0.40;0.40;;;;;;;6.92;100.00;95923.25;10594287;27;20054;-61
2021/12/01 13:31:28;;;;;;;0.90;0.65;;;;;;;6.90;100.00;95920.78;10591670;27;20412;-62
2021/12/01 13:36:35;;;;;;;0.63;0.60;;;;;;;6.86;100.00;95921.41;10596712;27;20077;-63
2021/12/01 13:41:42;;;;;;;0.95;0.50;;;;;;;6.85;100.00;95896.47;10593105;27;20417;-61
2021/12/01 13:46:46;;;;;;;0.60;0.40;;;;;;;6.89;100.00;95886.19;10593419;27;20058;-62
2021/12/01 13:51:50;;;;;;;0.40;0.40;;;;;;;6.89;100.00;95891.53;10595713;27;20057;-58
2021/12/01 13:57:01;;;;;;;2.03;0.60;;;;;;;6.88;100.00;95900.63;10591451;27;20512;-58
2021/12/01 14:02:04;;;;;;;0.90;0.50;;;;;;;6.92;100.00;95899.16;10610735;22;20531;-63
2021/12/01 14:07:08;;;;;;;0.50;0.50;;;;;;;6.93;100.00;95868.72;10560552;28;20036;-63
2021/12/01 14:12:17;;;;;;;0.50;0.50;;;;;;;7.00;100.00;95880.25;10570050;28;20051;-61
2021/12/01 14:17:20;;;;;;;0.47;0.47;;;;;;;7.00;100.00;95888.28;10569803;28;20393;-63
2021/12/01 14:22:24;;;;;;;0.60;0.60;;;;;;;6.99;100.00;95873.28;10568817;28;20390;-62
2021/12/01 14:27:31;;;;;;;0.65;0.55;;;;;;;7.01;100.00;95870.38;10569724;28;20082;-58
2021/12/01 14:32:35;;;;;;;0.57;0.57;;;;;;;7.02;100.00;95856.78;10569882;28;20142;-59
2021/12/01 14:37:39;;;;;;;0.60;0.50;;;;;;;7.02;100.00;95847.94;10564296;28;20035;-60
2021/12/01 14:42:46;;;;;;;0.63;0.50;;;;;;;7.01;100.00;95809.63;10565979;28;20047;-60
2021/12/01 14:48:03;;;;;;;1.90;0.50;;;;;;;7.06;100.00;95825.91;10565673;28;20036;-62
2021/12/01 14:53:12;;;;;;;0.55;0.43;;;;;;;7.07;100.00;95816.88;10569903;28;20050;-61
2021/12/01 14:58:20;;;;;;;0.55;0.40;;;;;;;7.07;100.00;95803.47;10565582;28;20069;-59
2021/12/01 15:03:24;;;;;;;0.55;0.50;;;;;;;7.09;100.00;95808.63;10569529;28;20044;-60
2021/12/01 15:08:30;;;;;;;0.60;0.60;;;;;;;7.11;100.00;95825.31;10568545;28;20059;-62
2021/12/01 15:13:38;;;;;;;0.77;0.70;;;;;;;7.13;100.00;95792.97;10569369;28;20048;-60
2021/12/01 15:18:42;;;;;;;0.50;0.50;;;;;;;7.13;100.00;95784.94;10564789;28;20043;-61
2021/12/01 15:23:49;;;;;;;0.63;0.50;;;;;;;7.12;100.00;95777.94;10565830;28;20036;-61
2021/12/01 15:28:57;;;;;;;0.40;0.40;;;;;;;7.09;100.00;95771.97;10570040;28;20062;-61
2021/12/01 15:34:02;;;;;;;0.47;0.47;;;;;;;7.14;100.00;95790.09;10558834;28;20046;-60
2021/12/01 15:39:21;;;;;;;0.65;0.60;;;;;;;7.14;100.00;95778.56;10561298;28;20051;-62
2021/12/01 15:44:27;;;;;;;0.50;0.50;;;;;;;7.13;100.00;95785.78;10567311;28;20046;-62
2021/12/01 15:49:31;;;;;;;0.82;0.40;;;;;;;7.23;100.00;95769.31;10574526;28;20063;-60
2021/12/01 15:54:35;;;;;;;0.40;0.40;;;;;;;7.27;100.00;95789.28;10476176;28;21311;-62
2021/12/01 15:59:39;;;;;;;0.40;0.40;;;;;;;7.31;100.00;95753.03;10500093;28;20051;-60
2021/12/01 16:04:43;;;;;;;1.60;0.43;;;;;;;7.36;100.00;95755.09;10497956;28;20128;-62
2021/12/01 16:09:46;;;;;;;0.40;0.40;;;;;;;7.31;100.00;95763.75;10505086;28;20052;-58
2021/12/01 16:14:50;;;;;;;0.30;0.30;;;;;;;7.28;100.00;95748.09;10497188;28;20041;-60
2021/12/01 16:19:54;;;;;;;0.50;0.50;;;;;;;7.22;100.00;95763.13;10496971;28;20064;-63
2021/12/01 16:24:59;;;;;;;0.45;0.45;;;;;;;7.24;100.00;95763.75;10529208;28;20036;-60
2021/12/01 16:30:08;;;;;;;0.75;0.68;;;;;;;7.32;100.00;95749.31;10509704;28;20550;-57
2021/12/01 16:35:11;;;;;;;0.40;0.40;;;;;;;7.34;100.00;95752.63;10496177;28;20049;-59
2021/12/01 16:40:16;;;;;;;0.40;0.40;;;;;;;7.26;100.00;95742.09;10499044;28;20513;-60
2021/12/01 16:45:22;;;;;;;0.50;0.50;;;;;;;7.29;100.00;95747.06;10500840;28;20048;-65
2021/12/01 16:50:26;;;;;;;0.40;0.40;;;;;;;7.34;100.00;95736.56;10491723;28;20040;-57
2021/12/01 16:55:30;;;;;;;0.40;0.40;;;;;;;7.35;100.00;95746.22;10490955;28;20048;-60
2021/12/01 17:00:40;;;;;;;0.50;0.50;;;;;;;7.22;100.00;95768.47;10491147;28;20051;-61
2021/12/01 17:05:47;;;;;;;0.50;0.47;;;;;;;7.14;100.00;95746.44;10489465;28;20047;-59
2021/12/01 17:10:50;;;;;;;0.55;0.55;;;;;;;6.96;100.00;95742.53;10498679;28;20109;-60
2021/12/01 17:15:55;;;;;;;0.75;0.52;;;;;;;6.91;100.00;95774.41;10492185;28;20036;-61
2021/12/01 17:21:00;;;;;;;0.38;0.38;;;;;;;6.83;100.00;95750.53;10500327;28;20484;-61
2021/12/01 17:26:05;;;;;;;0.55;0.50;;;;;;;6.86;100.00;95750.94;10493753;28;20047;-59
2021/12/01 17:31:17;;;;;;;0.43;0.43;;;;;;;6.78;100.00;95769.88;10498104;28;20063;-60
2021/12/01 17:36:20;;;;;;;0.50;0.50;;;;;;;6.82;100.00;95760.41;10498486;28;20068;-63
2021/12/01 17:41:24;;;;;;;0.50;0.50;;;;;;;6.83;100.00;95761.22;10494206;28;20131;-60
2021/12/01 17:46:29;;;;;;;0.60;0.60;;;;;;;6.85;100.00;95756.50;10495756;28;20501;-61
2021/12/01 17:51:33;;;;;;;0.60;0.60;;;;;;;6.86;100.00;95756.28;10491994;28;20051;-61
2021/12/01 17:56:36;;;;;;;0.68;0.50;;;;;;;6.82;100.00;95760.41;10490926;28;20036;-61
2021/12/01 18:01:40;;;;;;;1.00;0.60;;;;;;;6.76;100.00;95762.03;10493452;28;20043;-61
2021/12/01 18:06:47;;;;;;;0.57;0.50;;;;;;;6.76;100.00;95756.69;10488641;28;20052;-61
2021/12/01 18:11:50;;;;;;;0.30;0.30;;;;;;;6.69;100.00;95761.22;10491380;28;20032;-61
2021/12/01 18:16:56;;;;;;;0.60;0.40;;;;;;;6.58;100.00;95777.84;10487505;28;20035;-60
2021/12/01 18:21:59;;;;;;;1.20;0.50;;;;;;;6.50;100.00;95802.09;10501146;28;20049;-61
2021/12/01 18:27:02;;;;;;;0.40;0.40;;;;;;;6.54;100.00;95797.97;10489923;28;20047;-61
2021/12/01 18:32:08;;;;;;;0.30;0.30;;;;;;;6.60;100.00;95802.53;10493328;28;20072;-63
2021/12/01 18:37:11;;;;;;;0.40;0.40;;;;;;;6.63;100.00;95810.19;10492863;28;20064;-64
2021/12/01 18:42:15;;;;;;;0.95;0.40;;;;;;;6.67;100.00;95818.63;10492252;28;20478;-62
2021/12/01 18:47:20;;;;;;;0.77;0.60;;;;;;;6.63;100.00;95826.22;10493725;28;20028;-63
2021/12/01 18:52:23;;;;;;;0.60;0.60;;;;;;;6.73;100.00;95832.03;10492508;28;20094;-62
2021/12/01 18:57:26;;;;;;;0.50;0.50;;;;;;;6.66;100.00;95823.13;10499638;28;20055;-61
2021/12/01 19:02:32;;;;;;;0.75;0.57;;;;;;;6.69;100.00;95844.13;10487436;28;20119;-62
2021/12/01 19:07:36;;;;;;;0.77;0.60;;;;;;;6.65;100.00;95850.91;10486605;28;20042;-65
2021/12/01 19:12:40;;;;;;;0.70;0.70;;;;;;;6.61;100.00;95858.50;10492988;28;20131;-65
2021/12/01 19:24:37;;;;;;;2.45;0.80;;;;;;;6.67;100.00;95859.56;10507376;28;20040;-63
2021/12/01 19:29:40;;;;;;;1.77;0.70;;;;;;;6.68;100.00;95861.22;10501257;28;20041;-63
2021/12/01 19:34:44;;;;;;;1.95;0.80;;;;;;;6.62;100.00;95870.06;10501548;28;20130;-63
2021/12/01 19:39:48;;;;;;;1.70;0.77;;;;;;;6.67;100.00;95890.84;10506235;28;20062;-63
2021/12/01 19:44:56;;;;;;;2.33;0.98;;;;;;;6.62;100.00;95872.72;10493510;28;20555;-61
2021/12/01 19:50:00;;;;;;;3.70;0.98;;;;;;;6.53;100.00;95871.22;10498784;28;20071;-63
2021/12/01 19:55:05;;;;;;;1.70;1.00;;;;;;;6.53;100.00;95873.91;10501480;28;20100;-63
2021/12/01 20:00:12;;;;;;;2.05;1.10;;;;;;;6.44;100.00;95882.09;10509909;28;20063;-63
2021/12/01 20:05:16;;;;;;;2.22;1.10;;;;;;;6.35;100.00;95893.97;10506498;28;20437;-61
2021/12/01 20:10:23;;;;;;;3.25;1.13;;;;;;;6.27;100.00;95891.47;10504205;28;20121;-64
2021/12/01 20:15:27;;;;;;;3.92;1.23;;;;;;;6.23;100.00;95896.41;10505172;28;20055;-68
2021/12/01 20:20:33;;;;;;;5.50;1.00;;;;;;;6.25;100.00;95883.63;10505742;28;20055;-65
2021/12/01 20:25:39;;;;;;;2.15;1.20;;;;;;;6.24;100.00;95894.53;10493569;28;20041;-67
2021/12/01 20:30:42;;;;;;;2.35;1.20;;;;;;;6.21;100.00;95895.75;10499296;28;20533;-64
2021/12/01 20:35:47;;;;;;;3.05;1.13;;;;;;;6.27;100.00;95902.16;10492700;28;20087;-64
2021/12/01 20:40:52;;;;;;;3.70;1.05;;;;;;;6.33;100.00;95914.75;10495286;28;20048;-68
2021/12/01 20:46:03;;;;;;;3.75;1.00;;;;;;;6.30;100.00;95905.28;10497928;28;20436;-65
2021/12/01 20:56:37;;;;;;;1.50;1.00;;;;;;;6.27;100.00;95905.66;10506475;28;20051;-68
2021/12/01 21:01:41;;;;;;;1.38;0.80;;;;;;;6.31;100.00;95916.78;10512315;28;20113;-69
2021/12/01 21:06:46;;;;;;;2.30;0.90;;;;;;;6.36;100.00;95921.53;10496853;28;20062;-69
2021/12/01 21:11:52;;;;;;;2.20;0.80;;;;;;;6.42;100.00;95940.28;10515002;28;20079;-66
2021/12/01 21:16:57;;;;;;;2.63;0.90;;;;;;;6.42;100.00;95929.59;10493187;28;20115;-67
2021/12/01 21:22:04;;;;;;;1.08;0.73;;;;;;;6.46;100.00;95925.53;10498251;28;20070;-67
2021/12/01 21:27:11;;;;;;;2.58;0.90;;;;;;;6.42;100.00;96000.97;10496922;28;20585;-68
2021/12/01 21:32:15;;;;;;;0.45;0.45;;;;;;;4.19;100.00;96033.28;10504542;28;20067;-66
2021/12/01 21:37:18;;;;;;;3.67;0.70;;;;;;;3.93;100.00;96061.97;10492794;28;20048;-67
2021/12/01 21:42:24;;;;;;;5.88;0.70;;;;;;;3.80;100.00;96035.09;10500600;28;20141;-65
2021/12/01 21:47:30;;;;;;;2.30;0.50;;;;;;;3.72;100.00;96059.09;10492174;28;20076;-65
2021/12/01 21:52:38;;;;;;;1.65;0.70;;;;;;;3.64;100.00;96047.50;10502939;28;20605;-64
2021/12/01 21:57:43;;;;;;;3.22;0.70;;;;;;;3.62;100.00;96054.03;10497198;28;20044;-64
2021/12/01 22:02:48;;;;;;;2.13;0.80;;;;;;;3.61;100.00;96053.19;10516408;28;20064;-64
2021/12/01 22:07:52;;;;;;;2.42;0.73;;;;;;;3.59;100.00;96057.84;10515261;28;20386;-65
2021/12/01 22:12:59;;;;;;;1.38;0.60;;;;;;;3.66;100.00;96066.81;10497504;28;20123;-65
2021/12/01 22:18:03;;;;;;;2.75;0.70;;;;;;;3.74;100.00;96057.94;10503496;28;20048;-65
2021/12/01 22:23:10;;;;;;;1.83;0.70;;;;;;;3.87;100.00;96068.00;10506456;28;20047;-66
2021/12/01 22:28:16;;;;;;;1.48;0.73;;;;;;;3.98;100.00;96062.25;10502959;28;20054;-66
2021/12/01 22:33:22;;;;;;;1.10;0.70;;;;;;;4.00;100.00;96068.22;10532024;28;20074;-65
2021/12/01 22:38:25;;;;;;;2.35;0.80;;;;;;;4.04;100.00;96065.22;10529943;28;20067;-65
2021/12/01 22:43:30;;;;;;;1.08;0.70;;;;;;;4.11;100.00;96058.16;10522294;28;20072;-65
2021/12/01 22:48:34;;;;;;;1.40;1.00;;;;;;;4.16;100.00;96061.13;10491503;28;20513;-65
2021/12/01 22:53:38;;;;;;;3.47;1.13;;;;;;;4.15;100.00;96065.59;10487321;28;20044;-65
2021/12/01 22:58:49;;;;;;;4.57;1.20;;;;;;;4.19;100.00;96058.06;10490448;28;20040;-65
2021/12/01 23:03:53;;;;;;;;;;;;;;;4.24;100.00;96062.88;10494252;28;20207;-63
2021/12/01 23:08:58;;;;;;;3.78;1.10;;;;;;;4.13;100.00;96056.97;10493168;28;20291;-63
2021/12/01 23:14:02;;;;;;;1.55;0.75;;;;;;;4.32;100.00;96055.63;10494422;28;20049;-62
2021/12/01 23:19:07;;;;;;;2.45;0.70;;;;;;;4.11;100.00;96077.66;10492462;28;20121;-64
2021/12/01 23:29:32;;;;;;;2.97;0.73;;;;;;;4.08;100.00;96078.00;10490670;28;20139;-65
2021/12/01 23:34:35;;;;;;;5.13;0.90;;;;;;;4.04;100.00;96087.34;10491338;28;20130;-64
2021/12/01 23:39:43;;;;;;;4.25;0.98;;;;;;;3.90;100.00;96090.78;10491195;28;20039;-64
2021/12/01 23:44:50;;;;;;;5.82;0.98;;;;;;;3.86;100.00;96092.97;10518032;28;20054;-65
2021/12/01 23:55:14;;;;;;;3.75;1.02;;;;;;;3.88;100.00;96084.81;10496321;28;20100;-64
